Time;durP1;ratioP1;P1;durP2;ratioP2;P2;SDS_P1;SDS_P2;PMS_P1;PMS_P2;Temp;Humidity;BMP_temperature;BMP_pressure;BME280_temperature;BME280_humidity;BME280_pressure;Samples;Min_cycle;Max_cycle;Signal;HPM_P1;HPM_P2
2021/03/27 00:02:11;;;;;;;447.50;241.00;;;;;;;;;;4990818;28;20038;-77
2021/03/27 00:04:44;;;;;;;442.05;238.10;;;;;;;;;;4991131;28;20104;-79
2021/03/27 00:07:18;;;;;;;445.95;243.00;;;;;;;;;;4988610;28;20041;-80
2021/03/27 00:09:44;;;;;;;447.17;240.85;;;;;;;;;;4993020;28;20061;-80
2021/03/27 00:12:17;;;;;;;443.08;239.50;;;;;;;;;;4993600;28;20041;-80
2021/03/27 00:14:46;;;;;;;451.42;242.82;;;;;;;;;;4994452;28;20036;-80
2021/03/27 00:17:24;;;;;;;445.60;239.65;;;;;;;;;;4994581;28;20029;-78
2021/03/27 00:19:54;;;;;;;453.75;248.00;;;;;;;;;;4985579;28;20019;-79
2021/03/27 00:22:20;;;;;;;;;;;;;;;;;;5019217;28;20048;-79
2021/03/27 00:25:03;;;;;;;438.70;228.13;;;;;;;;;;4979536;28;20088;-78
2021/03/27 00:27:34;;;;;;;446.15;233.35;;;;;;;;;;4991335;28;20451;-80
2021/03/27 00:30:07;;;;;;;446.73;233.98;;;;;;;;;;4974572;28;20022;-79
2021/03/27 00:32:35;;;;;;;450.65;236.20;;;;;;;;;;4977073;28;20052;-79
2021/03/27 00:35:09;;;;;;;461.25;255.38;;;;;;;;;;4984108;28;20022;-80
2021/03/27 00:37:35;;;;;;;455.55;238.95;;;;;;;;;;4981139;28;20539;-79
2021/03/27 00:40:19;;;;;;;453.77;238.73;;;;;;;;;;5003111;28;20033;-78
2021/03/27 00:42:48;;;;;;;457.05;246.50;;;;;;;;;;4979287;28;20154;-78
2021/03/27 00:45:16;;;;;;;454.90;237.27;;;;;;;;;;5006491;28;20402;-77
2021/03/27 00:47:45;;;;;;;460.98;247.35;;;;;;;;;;5014322;28;20109;-78
2021/03/27 00:50:20;;;;;;;455.20;241.18;;;;;;;;;;4998725;28;20030;-77
2021/03/27 00:52:48;;;;;;;454.88;241.60;;;;;;;;;;4999379;28;20406;-78
2021/03/27 00:55:18;;;;;;;454.10;235.13;;;;;;;;;;5000082;28;20026;-78
2021/03/27 00:57:52;;;;;;;464.10;253.20;;;;;;;;;;4974328;28;20113;-78
2021/03/27 01:00:34;;;;;;;457.38;240.95;;;;;;;;;;4979637;28;20030;-78
2021/03/27 01:03:09;;;;;;;459.83;242.15;;;;;;;;;;4984552;28;20038;-78
2021/03/27 01:05:36;;;;;;;468.88;249.65;;;;;;;;;;5001882;28;20689;-79
2021/03/27 01:08:05;;;;;;;452.90;237.63;;;;;;;;;;4993699;28;20376;-78
2021/03/27 01:10:40;;;;;;;458.88;241.50;;;;;;;;;;5029368;28;20137;-77
2021/03/27 01:13:11;;;;;;;457.40;238.77;;;;;;;;;;4988546;28;20025;-78
2021/03/27 01:15:41;;;;;;;457.02;244.68;;;;;;;;;;4991952;28;20036;-78
2021/03/27 01:18:09;;;;;;;456.58;240.48;;;;;;;;;;4985112;28;20082;-78
2021/03/27 01:20:38;;;;;;;461.17;241.55;;;;;;;;;;4988014;28;20030;-78
2021/03/27 01:23:05;;;;;;;467.23;237.88;;;;;;;;;;4992487;28;20026;-78
2021/03/27 01:25:32;;;;;;;464.20;245.23;;;;;;;;;;4973543;28;20068;-77
2021/03/27 01:28:17;;;;;;;463.33;244.55;;;;;;;;;;4989319;28;20088;-79
2021/03/27 01:30:56;;;;;;;458.83;234.98;;;;;;;;;;4978019;28;20458;-78
2021/03/27 01:33:27;;;;;;;462.02;239.27;;;;;;;;;;4974255;28;20014;-79
2021/03/27 01:36:09;;;;;;;469.98;246.15;;;;;;;;;;4989617;28;20061;-79
2021/03/27 01:38:40;;;;;;;460.23;236.00;;;;;;;;;;5005609;28;20030;-78
2021/03/27 01:41:25;;;;;;;460.83;243.18;;;;;;;;;;4973334;28;20084;-78
2021/03/27 01:43:59;;;;;;;458.10;235.73;;;;;;;;;;4991767;28;20117;-77
2021/03/27 01:46:31;;;;;;;465.80;244.80;;;;;;;;;;4975094;28;20488;-77
2021/03/27 01:49:10;;;;;;;457.42;239.75;;;;;;;;;;5001614;28;20028;-77
2021/03/27 01:51:55;;;;;;;466.70;235.85;;;;;;;;;;4980136;28;20037;-78
2021/03/27 01:54:23;;;;;;;462.98;247.80;;;;;;;;;;4975597;28;20058;-79
2021/03/27 01:56:59;;;;;;;464.58;247.93;;;;;;;;;;5002708;28;20034;-78
2021/03/27 01:59:38;;;;;;;462.35;243.05;;;;;;;;;;5005034;28;20057;-78
2021/03/27 02:02:08;;;;;;;464.65;247.75;;;;;;;;;;5005624;28;20353;-77
2021/03/27 02:04:39;;;;;;;459.85;239.18;;;;;;;;;;4973391;28;20041;-79
2021/03/27 02:07:10;;;;;;;460.08;237.48;;;;;;;;;;4991364;28;20050;-77
2021/03/27 02:09:55;;;;;;;461.33;227.27;;;;;;;;;;4992093;28;20043;-77
2021/03/27 02:12:39;;;;;;;463.67;240.93;;;;;;;;;;4989440;28;20394;-79
2021/03/27 02:15:08;;;;;;;461.85;238.48;;;;;;;;;;4986891;28;20088;-78
2021/03/27 02:17:34;;;;;;;465.10;236.98;;;;;;;;;;4991899;28;20022;-78
2021/03/27 02:20:20;;;;;;;469.15;243.95;;;;;;;;;;4992222;28;20570;-78
2021/03/27 02:23:06;;;;;;;471.02;242.73;;;;;;;;;;4992243;28;20202;-78
2021/03/27 02:25:51;;;;;;;470.23;244.07;;;;;;;;;;4985316;28;20120;-77
2021/03/27 02:28:26;;;;;;;470.98;231.90;;;;;;;;;;5010195;28;20040;-78
2021/03/27 02:30:55;;;;;;;463.38;240.77;;;;;;;;;;5005432;28;20383;-79
2021/03/27 02:33:21;;;;;;;475.75;246.35;;;;;;;;;;4993011;28;20125;-76
2021/03/27 02:35:57;;;;;;;462.00;223.77;;;;;;;;;;5007937;28;20101;-77
2021/03/27 02:38:43;;;;;;;471.50;235.52;;;;;;;;;;4988290;28;20026;-78
2021/03/27 02:41:28;;;;;;;470.30;239.43;;;;;;;;;;4999355;28;20030;-77
2021/03/27 02:44:01;;;;;;;467.08;231.48;;;;;;;;;;5007357;28;20462;-78
2021/03/27 02:46:34;;;;;;;470.50;235.45;;;;;;;;;;4995565;28;20045;-78
2021/03/27 02:49:19;;;;;;;469.42;235.23;;;;;;;;;;4995614;28;20050;-80
2021/03/27 02:51:51;;;;;;;469.52;234.20;;;;;;;;;;4998407;28;20026;-78
2021/03/27 02:54:22;;;;;;;471.40;231.95;;;;;;;;;;4989919;28;20030;-78
2021/03/27 02:56:48;;;;;;;467.25;237.40;;;;;;;;;;5008646;28;20022;-79
2021/03/27 02:59:34;;;;;;;473.60;233.48;;;;;;;;;;5008941;28;20035;-78
2021/03/27 03:02:19;;;;;;;466.92;223.85;;;;;;;;;;4991078;28;20041;-79
2021/03/27 03:04:48;;;;;;;473.80;234.68;;;;;;;;;;4995438;28;20400;-79
2021/03/27 03:07:20;;;;;;;476.05;229.25;;;;;;;;;;4976002;28;20054;-78
2021/03/27 03:09:51;;;;;;;472.27;237.43;;;;;;;;;;4975720;28;20406;-79
2021/03/27 03:12:23;;;;;;;464.75;230.55;;;;;;;;;;4997257;28;20077;-79
2021/03/27 03:14:49;;;;;;;469.63;236.93;;;;;;;;;;5011647;28;20058;-78
2021/03/27 03:17:36;;;;;;;479.27;226.27;;;;;;;;;;4992200;28;20089;-79
2021/03/27 03:20:05;;;;;;;475.80;227.02;;;;;;;;;;4975517;28;20030;-79
2021/03/27 03:22:49;;;;;;;476.90;229.95;;;;;;;;;;4992632;28;20049;-77
2021/03/27 03:25:18;;;;;;;472.85;233.98;;;;;;;;;;4976178;28;20038;-79
2021/03/27 03:28:03;;;;;;;468.55;229.05;;;;;;;;;;4994720;28;20463;-79
2021/03/27 03:30:39;;;;;;;462.95;229.25;;;;;;;;;;4985018;28;20033;-77
2021/03/27 03:33:23;;;;;;;463.33;233.57;;;;;;;;;;5018039;28;20029;-78
2021/03/27 03:35:59;;;;;;;463.05;235.98;;;;;;;;;;4990449;28;20085;-79
2021/03/27 03:38:28;;;;;;;468.38;228.57;;;;;;;;;;4996045;28;20514;-79
2021/03/27 03:41:04;;;;;;;470.80;233.25;;;;;;;;;;5005475;28;20101;-80
2021/03/27 03:43:30;;;;;;;473.52;228.88;;;;;;;;;;5013858;28;20029;-78
2021/03/27 03:46:15;;;;;;;484.75;242.55;;;;;;;;;;4985780;28;20374;-78
2021/03/27 03:48:48;;;;;;;472.88;229.80;;;;;;;;;;5014475;28;20013;-79
2021/03/27 03:51:28;;;;;;;473.92;239.43;;;;;;;;;;4994714;28;20030;-76
2021/03/27 03:54:03;;;;;;;484.90;240.80;;;;;;;;;;5007886;28;20057;-78
2021/03/27 03:56:32;;;;;;;472.00;230.13;;;;;;;;;;5016552;28;20124;-78
2021/03/27 03:58:58;;;;;;;468.00;231.70;;;;;;;;;;4986885;28;20026;-79
2021/03/27 04:01:27;;;;;;;467.63;234.85;;;;;;;;;;5000365;28;20030;-79
2021/03/27 04:04:11;;;;;;;481.20;242.00;;;;;;;;;;5009638;28;20464;-79
2021/03/27 04:06:40;;;;;;;474.65;239.82;;;;;;;;;;4993315;28;20046;-78
2021/03/27 04:09:21;;;;;;;473.25;229.75;;;;;;;;;;4994263;28;20087;-78
2021/03/27 04:11:59;;;;;;;474.33;232.75;;;;;;;;;;4989298;28;20031;-80
2021/03/27 04:14:31;;;;;;;481.13;244.13;;;;;;;;;;4991189;28;20177;-78
2021/03/27 04:17:03;;;;;;;472.85;232.40;;;;;;;;;;4992214;28;20057;-77
2021/03/27 04:19:30;;;;;;;473.67;234.93;;;;;;;;;;5012604;28;20037;-78
2021/03/27 04:22:14;;;;;;;477.42;236.02;;;;;;;;;;5007500;28;20161;-79
2021/03/27 04:25:05;;;;;;;472.08;224.60;;;;;;;;;;5005434;28;20037;-78
2021/03/27 04:27:32;;;;;;;488.75;241.73;;;;;;;;;;4975043;28;20450;-78
2021/03/27 04:29:57;;;;;;;483.85;244.45;;;;;;;;;;4991465;28;20041;-78
2021/03/27 04:32:26;;;;;;;466.42;238.13;;;;;;;;;;4985605;28;20030;-78
2021/03/27 04:35:14;;;;;;;491.23;243.85;;;;;;;;;;5022954;28;20100;-79
2021/03/27 04:37:43;;;;;;;478.88;244.10;;;;;;;;;;4988066;28;20049;-79
2021/03/27 04:40:13;;;;;;;483.77;241.70;;;;;;;;;;4981361;28;20022;-78
2021/03/27 04:42:42;;;;;;;477.08;236.05;;;;;;;;;;4994184;28;20022;-78
2021/03/27 04:45:27;;;;;;;480.58;238.98;;;;;;;;;;4983975;28;20398;-79
2021/03/27 04:47:56;;;;;;;464.77;239.90;;;;;;;;;;4973715;28;20375;-78
2021/03/27 04:50:27;;;;;;;469.00;237.40;;;;;;;;;;4975007;28;20026;-78
2021/03/27 04:52:56;;;;;;;461.42;238.70;;;;;;;;;;4980865;28;20458;-78
2021/03/27 04:55:44;;;;;;;472.05;238.48;;;;;;;;;;4989649;28;20026;-78
2021/03/27 04:58:25;;;;;;;482.42;228.73;;;;;;;;;;4994237;28;20029;-79
2021/03/27 05:01:00;;;;;;;477.00;243.77;;;;;;;;;;5015225;28;20069;-79
2021/03/27 05:03:51;;;;;;;468.35;234.82;;;;;;;;;;4974149;28;20022;-77
2021/03/27 05:06:17;;;;;;;;;;;;;;;;;;4978688;28;20050;-78
2021/03/27 05:09:01;;;;;;;465.33;223.77;;;;;;;;;;5025618;28;19910;-79
2021/03/27 05:11:27;;;;;;;476.10;231.10;;;;;;;;;;4993343;28;20025;-77
2021/03/27 05:14:17;;;;;;;466.30;240.25;;;;;;;;;;4991298;28;20041;-78
2021/03/27 05:16:43;;;;;;;;;;;;;;;;;;4966127;28;20040;-77
2021/03/27 05:19:16;;;;;;;466.73;231.25;;;;;;;;;;4991849;28;19909;-80
2021/03/27 05:21:46;;;;;;;477.00;241.35;;;;;;;;;;4992965;28;20034;-78
2021/03/27 05:24:24;;;;;;;472.60;237.25;;;;;;;;;;4992905;28;20050;-77
2021/03/27 05:27:09;;;;;;;481.10;238.98;;;;;;;;;;4996219;28;20382;-77
2021/03/27 05:29:54;;;;;;;487.88;243.80;;;;;;;;;;4998498;28;20081;-80
2021/03/27 05:32:26;;;;;;;472.23;236.82;;;;;;;;;;4986278;28;20033;-78
2021/03/27 05:34:53;;;;;;;475.75;241.73;;;;;;;;;;4986093;28;20034;-78
2021/03/27 05:37:45;;;;;;;481.33;237.55;;;;;;;;;;4989768;28;20023;-78
2021/03/27 05:40:26;;;;;;;478.98;244.85;;;;;;;;;;4990166;28;20042;-78
2021/03/27 05:43:15;;;;;;;471.88;235.30;;;;;;;;;;4973760;28;20040;-79
2021/03/27 05:46:00;;;;;;;470.52;231.95;;;;;;;;;;4984822;28;20041;-79
2021/03/27 05:48:39;;;;;;;476.13;243.40;;;;;;;;;;4977167;28;20081;-79
2021/03/27 05:51:14;;;;;;;471.75;241.48;;;;;;;;;;4993012;28;20113;-78
2021/03/27 05:53:59;;;;;;;471.85;243.48;;;;;;;;;;5005994;28;20030;-78
2021/03/27 05:56:31;;;;;;;465.50;240.90;;;;;;;;;;5008263;28;20402;-79
2021/03/27 05:59:17;;;;;;;465.75;238.05;;;;;;;;;;4980791;28;20030;-78
2021/03/27 06:01:49;;;;;;;461.45;236.77;;;;;;;;;;4997974;28;20034;-78
2021/03/27 06:04:21;;;;;;;463.88;239.32;;;;;;;;;;5001943;28;20030;-78
2021/03/27 06:06:47;;;;;;;462.33;239.32;;;;;;;;;;4985192;28;20054;-78
2021/03/27 06:09:32;;;;;;;472.20;247.32;;;;;;;;;;4991244;28;20109;-78
2021/03/27 06:12:04;;;;;;;470.90;239.48;;;;;;;;;;4992417;28;20473;-78
2021/03/27 06:14:52;;;;;;;480.90;248.35;;;;;;;;;;4974201;28;20494;-78
2021/03/27 06:17:33;;;;;;;486.08;252.07;;;;;;;;;;4993218;28;20447;-78
2021/03/27 06:20:05;;;;;;;479.40;233.90;;;;;;;;;;4991153;28;20374;-78
2021/03/27 06:22:50;;;;;;;477.52;242.57;;;;;;;;;;4983429;28;20026;-78
2021/03/27 06:25:31;;;;;;;482.73;241.40;;;;;;;;;;4993795;28;20100;-79
2021/03/27 06:28:18;;;;;;;479.83;249.25;;;;;;;;;;5019545;28;20405;-76
2021/03/27 06:31:03;;;;;;;478.27;242.23;;;;;;;;;;4978648;28;20042;-79
2021/03/27 06:33:43;;;;;;;479.48;243.45;;;;;;;;;;4988330;28;20061;-76
2021/03/27 06:36:28;;;;;;;476.42;243.77;;;;;;;;;;4990631;28;20034;-78
2021/03/27 06:39:00;;;;;;;467.75;231.00;;;;;;;;;;5001282;28;20048;-78
2021/03/27 06:41:52;;;;;;;482.42;247.95;;;;;;;;;;4989700;28;20040;-78
2021/03/27 06:44:37;;;;;;;479.48;247.98;;;;;;;;;;4968467;28;20038;-75
2021/03/27 06:47:23;;;;;;;474.15;240.80;;;;;;;;;;4990430;28;20026;-77
2021/03/27 06:50:03;;;;;;;502.08;252.18;;;;;;;;;;4989827;28;20527;-77
2021/03/27 06:52:44;;;;;;;485.60;250.77;;;;;;;;;;4988655;28;20022;-78
2021/03/27 06:55:32;;;;;;;470.40;240.85;;;;;;;;;;5003937;28;20030;-78
2021/03/27 06:57:58;;;;;;;471.58;235.68;;;;;;;;;;4973707;28;20130;-78
2021/03/27 07:00:41;;;;;;;473.52;244.25;;;;;;;;;;4984797;28;20447;-76
2021/03/27 07:03:27;;;;;;;476.23;241.38;;;;;;;;;;5000388;28;20053;-79
2021/03/27 07:06:12;;;;;;;472.35;237.30;;;;;;;;;;5004750;28;20348;-76
2021/03/27 07:08:37;;;;;;;476.15;242.65;;;;;;;;;;4977171;28;20042;-78
2021/03/27 07:11:15;;;;;;;476.75;246.80;;;;;;;;;;5007241;28;20052;-78
2021/03/27 07:13:59;;;;;;;477.98;250.98;;;;;;;;;;5016318;28;20393;-80
2021/03/27 07:16:28;;;;;;;483.50;259.10;;;;;;;;;;5003602;28;20132;-79
2021/03/27 07:19:03;;;;;;;475.25;253.95;;;;;;;;;;4991831;28;20167;-79
2021/03/27 07:21:50;;;;;;;475.85;262.45;;;;;;;;;;5004821;28;20034;-79
2021/03/27 07:24:16;;;;;;;488.00;274.08;;;;;;;;;;4992887;28;20042;-80
2021/03/27 07:26:48;;;;;;;482.80;267.95;;;;;;;;;;4994885;28;20468;-79
2021/03/27 07:29:32;;;;;;;493.30;277.48;;;;;;;;;;4989993;28;20057;-79
2021/03/27 07:32:21;;;;;;;492.77;278.55;;;;;;;;;;4987440;28;20458;-79
2021/03/27 07:35:03;;;;;;;496.90;279.52;;;;;;;;;;4988362;28;20033;-80
2021/03/27 07:37:49;;;;;;;476.83;261.13;;;;;;;;;;5023303;28;20030;-81
2021/03/27 07:40:15;;;;;;;482.05;258.85;;;;;;;;;;4973348;28;20022;-81
2021/03/27 07:42:47;;;;;;;467.35;253.05;;;;;;;;;;4992977;28;20389;-78
2021/03/27 07:45:32;;;;;;;476.55;257.80;;;;;;;;;;4993906;28;20683;-78
2021/03/27 07:47:57;;;;;;;488.52;259.33;;;;;;;;;;4984052;28;20054;-79
2021/03/27 07:50:42;;;;;;;467.15;248.82;;;;;;;;;;4992456;28;20053;-79
2021/03/27 07:53:17;;;;;;;476.83;257.05;;;;;;;;;;4993193;28;20055;-79
2021/03/27 07:56:02;;;;;;;482.90;261.27;;;;;;;;;;4992308;28;20454;-78
2021/03/27 07:58:47;;;;;;;478.27;253.60;;;;;;;;;;5007130;28;20038;-79
2021/03/27 08:01:30;;;;;;;476.60;251.70;;;;;;;;;;4993031;28;20332;-80
2021/03/27 08:04:15;;;;;;;478.13;250.55;;;;;;;;;;4992300;28;20026;-79
2021/03/27 08:07:00;;;;;;;490.92;259.70;;;;;;;;;;5001140;28;20046;-79
2021/03/27 08:09:38;;;;;;;493.25;262.02;;;;;;;;;;4974447;28;20025;-79
2021/03/27 08:12:20;;;;;;;487.75;260.55;;;;;;;;;;4997465;28;20038;-81
2021/03/27 08:14:45;;;;;;;488.10;252.88;;;;;;;;;;4974020;28;20058;-78
2021/03/27 08:17:23;;;;;;;492.40;262.65;;;;;;;;;;4985025;28;20050;-78
2021/03/27 08:20:07;;;;;;;494.80;266.48;;;;;;;;;;4983134;28;20025;-78
2021/03/27 08:22:55;;;;;;;496.60;268.08;;;;;;;;;;4978410;28;20034;-79
2021/03/27 08:25:24;;;;;;;496.73;274.10;;;;;;;;;;4971550;28;20026;-79
2021/03/27 08:27:53;;;;;;;491.17;263.48;;;;;;;;;;4968968;28;20045;-77
2021/03/27 08:30:28;;;;;;;489.85;265.77;;;;;;;;;;4993524;28;20023;-79
2021/03/27 08:33:01;;;;;;;490.73;268.20;;;;;;;;;;4993160;28;20548;-80
2021/03/27 08:35:26;;;;;;;491.10;272.65;;;;;;;;;;4982556;28;21013;-78
2021/03/27 08:38:01;;;;;;;500.15;283.30;;;;;;;;;;4980394;28;20022;-78
2021/03/27 08:40:44;;;;;;;496.77;272.80;;;;;;;;;;4974705;28;20465;-77
2021/03/27 08:43:38;;;;;;;500.58;277.92;;;;;;;;;;4974152;28;20050;-78
2021/03/27 08:46:16;;;;;;;492.52;270.85;;;;;;;;;;4982647;28;20070;-78
2021/03/27 08:48:45;;;;;;;485.45;265.17;;;;;;;;;;4976411;28;20086;-78
2021/03/27 08:51:34;;;;;;;485.77;261.17;;;;;;;;;;4974663;28;20030;-78
2021/03/27 08:54:07;;;;;;;481.27;256.13;;;;;;;;;;4980453;28;20015;-77
2021/03/27 08:56:51;;;;;;;479.75;247.80;;;;;;;;;;4968941;28;20027;-76
2021/03/27 08:59:36;;;;;;;558.95;288.70;;;;;;;;;;4986354;28;20038;-78
2021/03/27 09:02:02;;;;;;;516.63;255.57;;;;;;;;;;4981044;28;20453;-76
2021/03/27 09:04:31;;;;;;;480.58;237.80;;;;;;;;;;4982048;28;20027;-77
2021/03/27 09:06:57;;;;;;;471.15;230.90;;;;;;;;;;4960474;28;20548;-77
2021/03/27 09:09:29;;;;;;;481.40;246.45;;;;;;;;;;4970400;28;20026;-77
2021/03/27 09:12:03;;;;;;;462.80;245.73;;;;;;;;;;4967807;28;20054;-79
2021/03/27 09:14:35;;;;;;;470.45;248.07;;;;;;;;;;4964463;28;20166;-80
2021/03/27 09:17:17;;;;;;;470.55;250.85;;;;;;;;;;4958368;28;20039;-80
2021/03/27 09:20:02;;;;;;;476.52;254.15;;;;;;;;;;4967150;28;20066;-79
2021/03/27 09:22:43;;;;;;;485.25;249.70;;;;;;;;;;4964589;28;20030;-78
2021/03/27 09:25:15;;;;;;;490.08;257.42;;;;;;;;;;4962365;28;20038;-80
2021/03/27 09:27:43;;;;;;;504.65;265.95;;;;;;;;;;4962892;28;20026;-79
2021/03/27 09:30:21;;;;;;;511.38;267.55;;;;;;;;;;4961387;28;20095;-78
2021/03/27 09:32:58;;;;;;;504.17;271.40;;;;;;;;;;4983439;28;20550;-77
2021/03/27 09:35:36;;;;;;;503.42;280.55;;;;;;;;;;4963184;28;20113;-80
2021/03/27 09:38:21;;;;;;;503.45;283.85;;;;;;;;;;4959346;28;20406;-79
2021/03/27 09:41:14;;;;;;;511.20;303.35;;;;;;;;;;4965557;28;20172;-81
2021/03/27 09:43:55;;;;;;;510.80;309.65;;;;;;;;;;4959252;28;20034;-79
2021/03/27 09:46:40;;;;;;;508.67;316.85;;;;;;;;;;4971824;28;20514;-79
2021/03/27 09:49:06;;;;;;;518.88;336.75;;;;;;;;;;4971060;28;20502;-81
2021/03/27 09:51:32;;;;;;;523.03;353.05;;;;;;;;;;4963583;28;20053;-80
2021/03/27 09:54:11;;;;;;;521.63;364.77;;;;;;;;;;4968844;28;20505;-78
2021/03/27 09:56:39;;;;;;;524.70;366.27;;;;;;;;;;4961776;28;20165;-80
2021/03/27 09:59:24;;;;;;;518.08;382.73;;;;;;;;;;4965712;28;20113;-80
2021/03/27 10:01:58;;;;;;;512.35;371.38;;;;;;;;;;4964857;28;20034;-79
2021/03/27 10:04:29;;;;;;;537.53;390.35;;;;;;;;;;4959675;28;20042;-78
2021/03/27 10:06:58;;;;;;;508.13;373.38;;;;;;;;;;4961053;28;20137;-79
2021/03/27 10:09:37;;;;;;;508.02;378.02;;;;;;;;;;4964510;28;20041;-78
2021/03/27 10:12:09;;;;;;;517.15;375.58;;;;;;;;;;4959701;28;20038;-83
2021/03/27 10:14:36;;;;;;;509.85;367.50;;;;;;;;;;4958645;28;20154;-79
2021/03/27 10:17:17;;;;;;;508.52;367.60;;;;;;;;;;4956582;28;20066;-79
2021/03/27 10:19:55;;;;;;;512.55;358.83;;;;;;;;;;4964065;28;20507;-79
2021/03/27 10:22:27;;;;;;;507.48;347.85;;;;;;;;;;4957644;28;20161;-79
2021/03/27 10:25:00;;;;;;;504.85;337.98;;;;;;;;;;4960737;28;20093;-80
2021/03/27 10:27:37;;;;;;;497.95;325.95;;;;;;;;;;4962235;28;20163;-79
2021/03/27 10:30:17;;;;;;;498.63;317.90;;;;;;;;;;4968526;28;20022;-78
2021/03/27 10:32:51;;;;;;;508.45;323.70;;;;;;;;;;4951965;28;20030;-78
2021/03/27 10:35:35;;;;;;;481.98;308.13;;;;;;;;;;4962505;28;20034;-79
2021/03/27 10:38:07;;;;;;;482.85;309.63;;;;;;;;;;4961087;28;20026;-79
2021/03/27 10:40:39;;;;;;;478.23;309.08;;;;;;;;;;4957595;28;20033;-79
2021/03/27 10:43:13;;;;;;;487.88;314.35;;;;;;;;;;4958885;28;20176;-80
2021/03/27 10:45:55;;;;;;;472.85;301.17;;;;;;;;;;4954909;28;20522;-80
2021/03/27 10:48:40;;;;;;;481.92;302.52;;;;;;;;;;4963787;28;20066;-81
2021/03/27 10:51:15;;;;;;;488.08;295.90;;;;;;;;;;4968922;28;20038;-79
2021/03/27 10:53:41;;;;;;;485.95;290.00;;;;;;;;;;4963886;28;20423;-79
2021/03/27 10:56:26;;;;;;;489.35;291.52;;;;;;;;;;4963970;28;20054;-80
2021/03/27 10:59:00;;;;;;;488.58;286.20;;;;;;;;;;4969030;28;20118;-80
2021/03/27 11:02:05;;;;;;;487.10;286.40;;;;;;;;;;4965516;28;20035;-78
2021/03/27 11:04:49;;;;;;;482.70;281.13;;;;;;;;;;4886310;29;20043;-78
2021/03/27 11:07:15;;;;;;;483.48;287.60;;;;;;;;;;4902192;29;20055;-77
2021/03/27 11:10:00;;;;;;;497.58;294.58;;;;;;;;;;4956233;28;20132;-79
2021/03/27 11:12:45;;;;;;;475.30;297.27;;;;;;;;;;4983687;28;20117;-78
2021/03/27 11:15:14;;;;;;;477.50;306.63;;;;;;;;;;4975050;28;20034;-79
2021/03/27 11:17:59;;;;;;;472.88;307.23;;;;;;;;;;5018096;28;20465;-79
2021/03/27 11:20:27;;;;;;;480.05;302.58;;;;;;;;;;4995434;28;20022;-79
2021/03/27 11:23:07;;;;;;;468.88;294.17;;;;;;;;;;4987328;28;20034;-78
2021/03/27 11:25:42;;;;;;;480.52;293.75;;;;;;;;;;4990579;28;20042;-78
2021/03/27 11:28:14;;;;;;;467.02;292.73;;;;;;;;;;4988568;28;20022;-80
2021/03/27 11:30:49;;;;;;;475.65;291.70;;;;;;;;;;4993568;28;20050;-79
2021/03/27 11:33:22;;;;;;;474.08;298.30;;;;;;;;;;4989369;28;20062;-79
2021/03/27 11:35:54;;;;;;;477.23;302.27;;;;;;;;;;4993378;28;20478;-79
2021/03/27 11:38:33;;;;;;;483.23;319.83;;;;;;;;;;4993698;28;20049;-79
2021/03/27 11:41:03;;;;;;;477.15;321.63;;;;;;;;;;4983520;28;20027;-79
2021/03/27 11:43:29;;;;;;;495.40;331.60;;;;;;;;;;4993333;28;20398;-78
2021/03/27 11:46:04;;;;;;;483.20;326.05;;;;;;;;;;5002738;28;20108;-78
2021/03/27 11:48:36;;;;;;;487.50;326.40;;;;;;;;;;4997706;28;20061;-80
2021/03/27 11:51:05;;;;;;;494.98;330.92;;;;;;;;;;5013996;28;20041;-78
2021/03/27 11:53:50;;;;;;;492.50;329.35;;;;;;;;;;5017535;28;20389;-79
2021/03/27 11:56:35;;;;;;;495.60;329.77;;;;;;;;;;5000781;28;20026;-78
2021/03/27 12:02:19;;;;;;;495.37;309.67;;;;;;;;;;5003427;28;20133;-79
2021/03/27 12:04:54;;;;;;;497.80;303.45;;;;;;;;;;4982926;28;20381;-78
2021/03/27 12:07:39;;;;;;;506.85;303.30;;;;;;;;;;4986661;28;20053;-80
2021/03/27 12:10:25;;;;;;;500.83;291.92;;;;;;;;;;4996823;28;20498;-78
2021/03/27 12:12:53;;;;;;;479.45;282.85;;;;;;;;;;4998902;28;20023;-78
2021/03/27 12:15:26;;;;;;;484.92;277.08;;;;;;;;;;5007542;28;20500;-76
2021/03/27 12:18:10;;;;;;;480.05;280.83;;;;;;;;;;4999309;28;20038;-82
2021/03/27 12:20:43;;;;;;;485.02;278.65;;;;;;;;;;4987451;28;20022;-78
2021/03/27 12:23:21;;;;;;;473.13;274.40;;;;;;;;;;5014874;28;20366;-80
2021/03/27 12:25:56;;;;;;;476.52;273.35;;;;;;;;;;4989744;28;20049;-80
2021/03/27 12:28:41;;;;;;;478.25;270.80;;;;;;;;;;4997504;28;20081;-79
2021/03/27 12:31:16;;;;;;;489.38;280.10;;;;;;;;;;5014056;28;20033;-79
2021/03/27 12:34:01;;;;;;;482.02;291.55;;;;;;;;;;4987453;28;20469;-80
2021/03/27 12:36:30;;;;;;;471.00;284.77;;;;;;;;;;5001061;28;20046;-78
2021/03/27 12:39:09;;;;;;;467.35;293.70;;;;;;;;;;4986972;28;20566;-80
2021/03/27 12:41:55;;;;;;;470.35;283.83;;;;;;;;;;4993206;28;20030;-80
2021/03/27 12:44:24;;;;;;;479.45;288.35;;;;;;;;;;4989005;28;20040;-79
2021/03/27 12:46:57;;;;;;;482.42;288.55;;;;;;;;;;5005721;28;20070;-78
2021/03/27 12:49:30;;;;;;;481.70;297.08;;;;;;;;;;4988758;28;20457;-79
2021/03/27 12:52:05;;;;;;;492.98;299.38;;;;;;;;;;4981851;28;20023;-80
2021/03/27 12:54:34;;;;;;;487.38;293.90;;;;;;;;;;5014367;28;20392;-78
2021/03/27 12:57:18;;;;;;;492.70;294.73;;;;;;;;;;4987450;28;20014;-81
2021/03/27 13:00:02;;;;;;;528.42;304.50;;;;;;;;;;4984521;28;20084;-79
2021/03/27 13:02:31;;;;;;;531.15;309.30;;;;;;;;;;4979224;28;20201;-79
2021/03/27 13:05:03;;;;;;;512.75;292.98;;;;;;;;;;4991364;28;20157;-80
2021/03/27 13:07:35;;;;;;;523.85;314.48;;;;;;;;;;4961410;28;20114;-79
2021/03/27 13:10:23;;;;;;;511.10;295.92;;;;;;;;;;4959707;28;20022;-80
2021/03/27 13:13:08;;;;;;;539.33;313.33;;;;;;;;;;4964577;28;20019;-78
2021/03/27 13:15:51;;;;;;;484.42;287.90;;;;;;;;;;4971962;28;20046;-80
2021/03/27 13:18:30;;;;;;;483.92;282.67;;;;;;;;;;4965494;28;20089;-79
2021/03/27 13:21:08;;;;;;;489.65;284.10;;;;;;;;;;4977758;28;20046;-79
2021/03/27 13:23:42;;;;;;;485.60;286.40;;;;;;;;;;4976622;28;20502;-80
2021/03/27 13:26:11;;;;;;;478.05;281.45;;;;;;;;;;4972968;28;20488;-80
2021/03/27 13:28:53;;;;;;;490.30;291.23;;;;;;;;;;4964905;28;20037;-79
2021/03/27 13:31:37;;;;;;;492.08;283.33;;;;;;;;;;4970927;28;20152;-80
2021/03/27 13:34:18;;;;;;;481.23;286.90;;;;;;;;;;4965663;28;20038;-79
2021/03/27 13:36:47;;;;;;;587.67;302.83;;;;;;;;;;4965439;28;20701;-79
2021/03/27 13:39:19;;;;;;;529.47;317.80;;;;;;;;;;4968302;28;20033;-78
2021/03/27 13:42:00;;;;;;;571.00;333.77;;;;;;;;;;4960331;28;20023;-78
2021/03/27 13:44:27;;;;;;;539.85;324.77;;;;;;;;;;4998644;28;20073;-77
2021/03/27 13:47:21;;;;;;;535.03;312.75;;;;;;;;;;4980676;28;20066;-79
2021/03/27 13:50:00;;;;;;;561.28;324.13;;;;;;;;;;4974750;28;20370;-78
2021/03/27 13:52:30;;;;;;;620.65;360.30;;;;;;;;;;4957444;28;20058;-80
2021/03/27 13:55:02;;;;;;;543.60;323.38;;;;;;;;;;4959528;28;20113;-77
2021/03/27 13:57:36;;;;;;;607.22;361.30;;;;;;;;;;4970776;28;20037;-78
2021/03/27 14:00:11;;;;;;;526.70;315.90;;;;;;;;;;4958365;28;20494;-79
2021/03/27 14:02:38;;;;;;;594.58;357.73;;;;;;;;;;4977918;28;20058;-78
2021/03/27 14:05:19;;;;;;;595.38;354.27;;;;;;;;;;4978249;28;20042;-78
2021/03/27 14:07:48;;;;;;;548.03;336.58;;;;;;;;;;4972101;28;20101;-79
2021/03/27 14:10:13;;;;;;;584.72;354.70;;;;;;;;;;4957909;28;20019;-78
2021/03/27 14:12:46;;;;;;;575.35;356.67;;;;;;;;;;4953845;28;20173;-78
2021/03/27 14:15:29;;;;;;;616.67;374.13;;;;;;;;;;4965166;28;20061;-80
2021/03/27 14:18:15;;;;;;;636.08;378.65;;;;;;;;;;4963344;28;20117;-78
2021/03/27 14:20:54;;;;;;;558.80;333.60;;;;;;;;;;4957178;28;20033;-78
2021/03/27 14:23:30;;;;;;;552.92;325.52;;;;;;;;;;4979837;28;20025;-77
2021/03/27 14:26:12;;;;;;;550.72;327.48;;;;;;;;;;4971835;28;20370;-78
2021/03/27 14:28:38;;;;;;;545.10;315.25;;;;;;;;;;4957852;28;20030;-79
2021/03/27 14:31:07;;;;;;;590.33;349.20;;;;;;;;;;4986573;28;20370;-76
2021/03/27 14:33:59;;;;;;;560.42;331.23;;;;;;;;;;4975409;28;20057;-79
2021/03/27 14:36:25;;;;;;;582.38;343.33;;;;;;;;;;4983559;28;20439;-77
2021/03/27 14:39:09;;;;;;;543.67;317.45;;;;;;;;;;4970178;28;20038;-77
2021/03/27 14:41:38;;;;;;;553.63;325.40;;;;;;;;;;4967510;28;20042;-78
2021/03/27 14:44:20;;;;;;;483.08;287.35;;;;;;;;;;4969003;28;20033;-77
2021/03/27 14:47:15;;;;;;;497.40;295.55;;;;;;;;;;4988291;28;20042;-77
2021/03/27 14:49:41;;;;;;;482.83;286.83;;;;;;;;;;4955839;28;20041;-80